»·PEaware :: N143VT KTOA-0O2

N143VT :: KTOA-0O2

FLIGHT INFORMATION

Flight Status: Arrived
Operator: Privately registered:
United States
More flights under this callsign
Pilot: Anonymous 16492 (16492)
Aircraft: Unknown
(EPIC)
More flights by this aircraft type
Origin: KTOA Zamperini
United States
Destination: 0O2 Baker
United States
More flights between these airports :: More routes between these airports
Route: +LIMBO SLI POM V394 APLES HEC
File this flight plan on PilotEdge
Remarks:
Altitude:
(Current/Filed)
15,000ft
Speed:
(Current/Filed)
300kts
Departed: 12-Oct-17 05:23 PM
Arrived: 12-Oct-17 06:05 PM
Distance/Time
Traveled:
143nm/0:42
Distance/Time
To Go:
Arrived

Flight Plot

Page will automatically refresh every two minutes.

Flight plan parsing failed; only flown route is shown


Map Options




Map Legend


Flown Route
Filed Route
Departure Airport
Arrival Airport
Navaid (VOR, NDB)
Fix

Horizontal Profiles

Position Reports

Time Latitude Longitude Heading Altitude Ground
Speed
12-Oct-17 17:00 33.803344 -118.344045 39 107ft 0kts
12-Oct-17 17:01 33.803344 -118.344045 39 107ft 0kts
12-Oct-17 17:02 33.803344 -118.344045 39 107ft 0kts
12-Oct-17 17:03 33.803344 -118.344045 39 107ft 0kts
12-Oct-17 17:04 33.803344 -118.344045 39 107ft 0kts
12-Oct-17 17:05 33.803344 -118.344045 39 107ft 0kts
12-Oct-17 17:06 33.803344 -118.344045 39 107ft 0kts
12-Oct-17 17:07 33.803344 -118.344045 39 107ft 0kts
12-Oct-17 17:08 33.803344 -118.344045 39 107ft 0kts
12-Oct-17 17:09 33.803344 -118.344045 39 107ft 0kts
12-Oct-17 17:10 33.803344 -118.344045 39 107ft 0kts
12-Oct-17 17:11 33.803344 -118.344045 39 107ft 0kts
12-Oct-17 17:12 33.803344 -118.344045 39 107ft 0kts
12-Oct-17 17:13 33.803344 -118.344045 39 107ft 0kts
12-Oct-17 17:14 33.803344 -118.344045 39 107ft 0kts
12-Oct-17 17:15 33.803344 -118.344045 39 107ft 0kts
12-Oct-17 17:16 33.803344 -118.344045 39 107ft 0kts
12-Oct-17 17:17 33.803345 -118.344045 38 107ft 0kts
12-Oct-17 17:17 33.803345 -118.344045 38 107ft 0kts
12-Oct-17 17:19 33.803345 -118.344045 38 107ft 0kts
12-Oct-17 17:20 33.803345 -118.344045 38 107ft 0kts
12-Oct-17 17:21 33.803345 -118.344045 38 107ft 0kts
12-Oct-17 17:21 33.803365 -118.344025 42 107ft 1kts
12-Oct-17 17:23 33.802732 -118.341606 127 107ft 8kts
12-Oct-17 17:24 33.800863 -118.338795 128 107ft 12kts
12-Oct-17 17:24 33.798819 -118.335696 129 107ft 15kts
12-Oct-17 17:26 33.799136 -118.333256 37 107ft 0kts
12-Oct-17 17:26 33.799156 -118.333239 34 107ft 1kts
12-Oct-17 17:27 33.802106 -118.336842 308 107ft 84kts
12-Oct-17 17:28 33.825418 -118.372899 305 1659ft 167kts
12-Oct-17 17:29 33.853456 -118.416508 305 4429ft 165kts
12-Oct-17 17:30 33.849739 -118.456384 181 6832ft 176kts
12-Oct-17 17:31 33.790596 -118.447331 186 7031ft 250kts
12-Oct-17 17:32 33.761147 -118.381072 81 7025ft 280kts
12-Oct-17 17:33 33.769195 -118.286662 84 7016ft 286kts
12-Oct-17 17:34 33.774455 -118.203803 85 9734ft 197kts
12-Oct-17 17:35 33.778320 -118.140043 85 11674ft 197kts
12-Oct-17 17:36 33.782331 -118.072450 83 13179ft 208kts
12-Oct-17 17:37 33.820832 -118.022735 34 14550ft 210kts
12-Oct-17 17:38 33.870300 -117.976577 33 15006ft 248kts
12-Oct-17 17:39 33.928129 -117.923869 33 14995ft 271kts
12-Oct-17 17:40 33.989143 -117.868368 33 15005ft 278kts
12-Oct-17 17:41 34.050963 -117.812109 33 15017ft 280kts
12-Oct-17 17:42 34.107617 -117.747290 44 15016ft 284kts
12-Oct-17 17:43 34.160529 -117.676483 44 15005ft 285kts
12-Oct-17 17:44 34.213389 -117.605199 45 14994ft 285kts
12-Oct-17 17:45 34.266269 -117.533693 45 15004ft 285kts
12-Oct-17 17:46 34.318529 -117.462829 45 15032ft 285kts
12-Oct-17 17:47 34.371308 -117.391148 45 15058ft 285kts
12-Oct-17 17:48 34.423783 -117.319767 45 15063ft 285kts
12-Oct-17 17:49 34.476486 -117.247913 45 15054ft 285kts
12-Oct-17 17:50 34.529062 -117.176086 45 15059ft 285kts
12-Oct-17 17:51 34.568832 -117.092704 63 15069ft 288kts
12-Oct-17 17:52 34.601764 -117.003678 64 15053ft 291kts
12-Oct-17 17:53 34.634627 -116.913515 65 15036ft 293kts
12-Oct-17 17:54 34.667568 -116.822568 66 15018ft 295kts
12-Oct-17 17:55 34.700544 -116.731269 66 15001ft 295kts
12-Oct-17 17:56 34.733557 -116.639715 66 15002ft 295kts
12-Oct-17 17:57 34.766447 -116.548251 66 15002ft 295kts
12-Oct-17 17:58 34.805392 -116.462039 36 15007ft 292kts
12-Oct-17 17:59 34.873488 -116.404288 30 14187ft 314kts
12-Oct-17 18:00 34.947661 -116.346194 30 12729ft 314kts
12-Oct-17 18:01 35.019180 -116.290389 30 11222ft 300kts
12-Oct-17 18:02 35.088497 -116.236296 30 9715ft 293kts
12-Oct-17 18:03 35.154593 -116.184613 30 9022ft 266kts
12-Oct-17 18:04 35.207824 -116.129965 55 7444ft 255kts
12-Oct-17 18:05 35.246895 -116.065554 15 4529ft 248kts
12-Oct-17 18:06 35.305179 -116.088306 347 3086ft 180kts
12-Oct-17 18:07 35.309149 -116.059149 156 2441ft 120kts
12-Oct-17 18:08 35.274687 -116.057298 222 2258ft 130kts
12-Oct-17 18:09 35.287560 -116.081720 9 925ft 6kts
12-Oct-17 18:10 35.287734 -116.081382 257 925ft 0kts
12-Oct-17 18:11 35.287734 -116.081382 257 925ft 0kts
12-Oct-17 18:12 35.287734 -116.081382 257 925ft 0kts
12-Oct-17 18:13 35.287734 -116.081382 257 925ft 0kts
12-Oct-17 18:14 35.287734 -116.081382 257 925ft 0kts
12-Oct-17 18:15 35.287734 -116.081382 257 925ft 0kts
12-Oct-17 18:16 35.287734 -116.081382 257 925ft 0kts
12-Oct-17 18:17 35.287734 -116.081382 257 925ft 0kts
12-Oct-17 18:18 35.287734 -116.081382 257 925ft 0kts
12-Oct-17 18:19 35.287734 -116.081382 257 925ft 0kts
12-Oct-17 18:20 35.287734 -116.081382 257 925ft 0kts
12-Oct-17 18:21 35.287734 -116.081382 257 925ft 0kts
12-Oct-17 18:22 35.287734 -116.081382 257 925ft 0kts
12-Oct-17 18:24 35.287734 -116.081382 257 925ft 0kts

Navigation Log

Ident Type
Flight plan parsing failed, navigation log unavailable